Time;durP1;ratioP1;P1;durP2;ratioP2;P2;SDS_P1;SDS_P2;PMS_P1;PMS_P2;Temp;Humidity;BMP_temperature;BMP_pressure;BME280_temperature;BME280_humidity;BME280_pressure;Samples;Min_cycle;Max_cycle;Signal;HPM_P1;HPM_P2
2023/12/24 00:02:07;;;;;;;;;0.00;0.00;;;;;15.63;100.00;101550.72;5055243;28;45379;-82
2023/12/24 00:04:33;;;;;;;;;0.00;0.00;;;;;15.63;100.00;101551.56;5038962;28;45397;-83
2023/12/24 00:06:58;;;;;;;;;0.00;0.00;;;;;15.60;100.00;101556.94;5037916;28;45658;-82
2023/12/24 00:09:23;;;;;;;;;0.00;0.00;;;;;15.67;100.00;101554.94;5070780;28;55923;-82
2023/12/24 00:11:49;;;;;;;;;0.00;0.00;;;;;15.57;100.00;101561.44;5037392;28;66817;-82
2023/12/24 00:14:14;;;;;;;;;0.00;0.00;;;;;15.58;100.00;101565.78;5021293;28;61390;-83
2023/12/24 00:16:41;;;;;;;;;0.00;0.00;;;;;15.54;100.00;101572.91;5021098;28;58331;-82
2023/12/24 00:19:07;;;;;;;;;0.00;0.00;;;;;15.65;100.00;101569.88;5038215;28;46440;-84
2023/12/24 00:21:32;;;;;;;;;0.00;0.00;;;;;15.47;100.00;101559.16;5037205;28;45994;-82
2023/12/24 00:23:57;;;;;;;;;0.00;0.00;;;;;15.65;100.00;101555.00;5055404;28;68946;-83
2023/12/24 00:26:23;;;;;;;;;0.00;0.00;;;;;15.68;100.00;101562.75;5020532;28;69559;-84
2023/12/24 00:28:50;;;;;;;;;0.00;0.00;;;;;15.70;100.00;101554.84;5037631;28;47616;-84
2023/12/24 00:31:16;;;;;;;;;0.00;0.00;;;;;15.64;100.00;101550.66;5056208;28;45397;-84
2023/12/24 00:33:41;;;;;;;;;0.00;0.00;;;;;15.65;100.00;101552.38;5021590;28;45426;-83
2023/12/24 00:36:07;;;;;;;;;0.00;0.00;;;;;15.62;100.00;101560.38;5037306;28;67893;-84
2023/12/24 00:38:32;;;;;;;;;0.00;0.00;;;;;15.67;100.00;101544.44;5055783;28;45456;-83
2023/12/24 00:40:57;;;;;;;;;0.00;0.00;;;;;15.50;100.00;101566.06;5054621;28;68173;-83
2023/12/24 00:43:23;;;;;;;;;2.00;2.00;;;;;15.61;100.00;101542.91;5065355;28;68129;-83
2023/12/24 00:45:49;;;;;;;;;0.00;0.00;;;;;15.54;100.00;101541.41;5039405;28;45511;-83
2023/12/24 00:48:14;;;;;;;;;0.00;0.00;;;;;15.60;100.00;101543.84;5036895;28;67362;-83
2023/12/24 00:50:39;;;;;;;;;0.00;0.00;;;;;15.52;100.00;101550.25;5037251;28;62121;-83
2023/12/24 00:53:05;;;;;;;;;0.00;0.00;;;;;15.67;100.00;101544.44;5037597;28;63527;-82
2023/12/24 00:55:30;;;;;;;;;1.00;1.00;;;;;15.69;100.00;101539.97;5055567;28;45346;-82
2023/12/24 00:57:55;;;;;;;;;0.00;0.00;;;;;15.65;100.00;101526.13;5027691;28;74672;-83
2023/12/24 01:00:21;;;;;;;;;0.00;0.00;;;;;15.64;100.00;101531.44;5020933;28;68703;-83
2023/12/24 01:02:46;;;;;;;;;0.00;0.00;;;;;15.59;100.00;101542.09;5037373;28;65348;-82
2023/12/24 01:05:11;;;;;;;;;0.00;0.00;;;;;15.62;100.00;101536.75;5054745;28;65404;-83
2023/12/24 01:07:37;;;;;;;;;0.00;0.00;;;;;15.67;100.00;101534.81;5036912;28;67503;-82
2023/12/24 01:10:02;;;;;;;;;1.33;1.33;;;;;15.66;100.00;101535.72;5042951;28;45462;-82
2023/12/24 01:12:28;;;;;;;;;0.00;0.00;;;;;15.67;100.00;101537.44;5055369;28;45302;-83
2023/12/24 01:14:53;;;;;;;;;6.75;6.75;;;;;15.61;100.00;101535.03;5027955;28;63782;-84
2023/12/24 01:17:18;;;;;;;;;0.00;0.00;;;;;15.44;100.00;101542.69;5040938;28;47138;-84
2023/12/24 01:19:44;;;;;;;;;0.00;0.00;;;;;15.58;100.00;101521.16;5043388;28;45395;-82
2023/12/24 01:22:09;;;;;;;;;0.00;0.00;;;;;15.51;100.00;101520.56;5020822;28;45602;-82
2023/12/24 01:24:35;;;;;;;;;0.00;0.00;;;;;15.50;100.00;101529.31;5054201;28;69514;-83
2023/12/24 01:27:00;;;;;;;;;0.00;0.00;;;;;15.57;100.00;101535.22;5041587;28;46555;-82
2023/12/24 01:29:25;;;;;;;;;0.00;0.00;;;;;15.51;100.00;101546.78;5036536;28;72263;-82
2023/12/24 01:31:51;;;;;;;;;0.00;0.00;;;;;15.48;100.00;101533.78;5038213;28;62940;-83
2023/12/24 01:34:17;;;;;;;;;0.00;0.00;;;;;15.53;100.00;101525.75;5058725;28;45472;-83
2023/12/24 01:36:42;;;;;;;;;0.00;0.00;;;;;15.53;100.00;101528.38;5058602;28;55724;-84
2023/12/24 01:39:07;;;;;;;;;0.00;0.00;;;;;15.56;100.00;101523.84;5022605;28;73225;-83
2023/12/24 01:41:33;;;;;;;;;0.00;0.00;;;;;15.54;100.00;101524.81;5039762;28;65206;-83
2023/12/24 01:43:58;;;;;;;;;0.00;0.00;;;;;15.59;100.00;101522.88;5058527;28;45373;-83
2023/12/24 01:46:24;;;;;;;;;0.00;0.00;;;;;15.52;100.00;101538.00;5039696;28;67986;-83
2023/12/24 01:48:50;;;;;;;;;0.00;0.00;;;;;15.59;100.00;101515.00;5024159;28;45516;-83
2023/12/24 01:51:19;;;;;;;;;0.00;0.00;;;;;15.58;100.00;101514.16;5050545;28;45588;-83
2023/12/24 01:53:47;;;;;;;;;0.00;0.00;;;;;15.53;100.00;101520.50;5040455;28;45474;-83
2023/12/24 01:56:14;;;;;;;;;0.00;0.00;;;;;15.51;100.00;101509.19;5048679;28;45484;-85
2023/12/24 01:58:40;;;;;;;;;0.00;0.00;;;;;15.54;100.00;101498.59;5043759;28;45439;-83
2023/12/24 02:01:05;;;;;;;;;0.00;0.00;;;;;15.43;100.00;101499.84;5059731;28;68084;-83
2023/12/24 02:03:30;;;;;;;;;0.00;0.00;;;;;15.41;100.00;101496.41;5059467;28;69702;-83
2023/12/24 02:05:56;;;;;;;;;0.00;0.00;;;;;15.45;100.00;101498.03;5047221;28;46305;-83
2023/12/24 02:08:21;;;;;;;;;0.00;0.00;;;;;15.51;100.00;101496.94;5022164;28;66523;-83
2023/12/24 02:10:48;;;;;;;;;0.00;0.00;;;;;15.37;100.00;101499.22;5061740;28;45392;-83
2023/12/24 02:13:14;;;;;;;;;0.00;0.00;;;;;15.45;100.00;101492.78;5040485;28;45456;-83
2023/12/24 02:15:40;;;;;;;;;0.00;0.00;;;;;15.48;100.00;101486.56;5039943;28;46244;-83
2023/12/24 02:18:06;;;;;;;;;0.00;0.00;;;;;15.42;100.00;101489.41;5078611;28;45452;-83
2023/12/24 02:20:31;;;;;;;;;0.00;0.00;;;;;15.43;100.00;101488.47;5078590;28;45322;-82
2023/12/24 02:22:57;;;;;;;;;1.00;1.00;;;;;15.40;100.00;101494.72;5043137;28;45315;-83
2023/12/24 02:25:22;;;;;;;;;0.00;0.00;;;;;15.44;100.00;101479.72;5022602;28;76360;-83
2023/12/24 02:28:14;;;;;;;;;0.00;0.00;;;;;15.48;100.00;101484.78;5039419;28;54559;-84
2023/12/24 02:30:42;;;;;;;;;0.00;0.00;;;;;15.42;100.00;101503.38;5042560;28;45372;-84
2023/12/24 02:33:08;;;;;;;;;0.00;0.00;;;;;15.49;100.00;101511.88;5037183;28;45411;-83
2023/12/24 02:35:35;;;;;;;;;0.00;0.00;;;;;15.41;100.00;101508.69;5039643;28;46412;-83
2023/12/24 02:38:00;;;;;;;;;0.00;0.00;;;;;15.41;100.00;101511.28;5039395;28;45402;-83
2023/12/24 02:40:26;;;;;;;;;0.00;0.00;;;;;15.48;100.00;101524.13;5058873;28;45452;-83
2023/12/24 02:42:51;;;;;;;;;0.00;0.00;;;;;15.49;100.00;101517.13;5069865;28;60302;-83
2023/12/24 02:45:17;;;;;;;;;0.00;0.00;;;;;15.50;100.00;101500.47;5056541;28;69616;-83
2023/12/24 02:47:42;;;;;;;;;0.00;0.00;;;;;15.48;100.00;101495.25;5076167;28;45458;-83
2023/12/24 02:50:08;;;;;;;;;0.00;0.00;;;;;15.53;100.00;101487.25;5057774;28;58541;-83
2023/12/24 02:52:33;;;;;;;;;0.00;0.00;;;;;15.46;100.00;101488.38;5027891;28;45529;-82
2023/12/24 02:54:58;;;;;;;;;0.00;0.00;;;;;15.48;100.00;101486.56;5057540;28;45468;-82
2023/12/24 02:57:24;;;;;;;;;0.00;0.00;;;;;15.45;100.00;101482.28;5039554;28;46913;-83
2023/12/24 02:59:49;;;;;;;;;0.00;0.00;;;;;15.37;100.00;101486.09;5038887;28;62450;-83
2023/12/24 03:02:14;;;;;;;;;0.00;0.00;;;;;15.26;100.00;101470.75;5056457;28;69542;-82
2023/12/24 03:04:40;;;;;;;;;0.00;0.00;;;;;15.39;100.00;101471.16;5054974;28;73110;-83
2023/12/24 03:07:05;;;;;;;;;0.00;0.00;;;;;15.39;100.00;101471.16;5056311;28;72387;-82
2023/12/24 03:09:30;;;;;;;;;0.00;0.00;;;;;15.37;100.00;101468.59;5039353;28;45390;-83
2023/12/24 03:11:56;;;;;;;;;0.00;0.00;;;;;15.40;100.00;101467.63;5038866;28;65265;-83
2023/12/24 03:14:21;;;;;;;;;0.75;0.75;;;;;15.45;100.00;101477.03;5057125;28;45883;-83
2023/12/24 03:16:46;;;;;;;;;0.00;0.00;;;;;15.33;100.00;101497.63;5038519;28;71145;-82
2023/12/24 03:19:12;;;;;;;;;0.00;0.00;;;;;15.30;100.00;101477.59;5055970;28;60011;-82
2023/12/24 03:21:41;;;;;;;;;0.00;0.00;;;;;15.39;100.00;101455.41;5056271;28;59542;-84
2023/12/24 03:24:07;;;;;;;;;0.00;0.00;;;;;15.21;100.00;101470.06;5038948;28;48036;-82
2023/12/24 03:26:32;;;;;;;;;0.00;0.00;;;;;15.42;100.00;101455.31;5057211;28;45364;-83
2023/12/24 03:29:00;;;;;;;;;3.00;0.00;;;;;15.27;100.00;101475.94;5021576;28;68272;-82
2023/12/24 03:31:26;;;;;;;;;0.00;0.00;;;;;15.41;100.00;101445.72;5057077;28;45311;-83
2023/12/24 03:33:51;;;;;;;;;0.00;0.00;;;;;15.34;100.00;101442.47;5038996;28;45393;-83
2023/12/24 03:36:17;;;;;;;;;0.00;0.00;;;;;15.28;100.00;101448.81;5038668;28;45408;-83
2023/12/24 03:38:42;;;;;;;;;0.00;0.00;;;;;15.24;100.00;101452.44;5056169;28;65668;-83
2023/12/24 03:41:07;;;;;;;;;0.00;0.00;;;;;15.38;100.00;101444.06;5021204;28;70325;-82
2023/12/24 03:43:33;;;;;;;;;0.00;0.00;;;;;15.34;100.00;101436.34;5018764;28;47120;-83
2023/12/24 03:45:58;;;;;;;;;0.00;0.00;;;;;15.26;100.00;101439.28;5038561;28;45509;-83
2023/12/24 03:48:24;;;;;;;;;0.00;0.00;;;;;15.34;100.00;101452.97;5038424;28;45476;-84
2023/12/24 03:50:49;;;;;;;;;0.00;0.00;;;;;15.39;100.00;101439.69;5038389;28;45612;-82
2023/12/24 03:53:15;;;;;;;;;0.00;0.00;;;;;15.31;100.00;101439.13;5037668;28;70555;-82
2023/12/24 03:55:40;;;;;;;;;0.00;0.00;;;;;15.29;100.00;101439.16;5037253;28;73272;-84
2023/12/24 03:58:05;;;;;;;;;0.00;0.00;;;;;15.33;100.00;101448.63;5038505;28;47096;-83
2023/12/24 04:00:31;;;;;;;;;0.00;0.00;;;;;15.29;100.00;101447.88;5022350;28;45376;-84
2023/12/24 04:02:56;;;;;;;;;0.00;0.00;;;;;15.20;100.00;101445.59;5037435;28;72845;-83
2023/12/24 04:05:22;;;;;;;;;0.00;0.00;;;;;15.15;100.00;101444.91;5037408;28;45662;-83
2023/12/24 04:07:47;;;;;;;;;0.00;0.00;;;;;15.17;100.00;101434.38;5056200;28;45362;-82
2023/12/24 04:10:13;;;;;;;;;0.00;0.00;;;;;15.16;100.00;101419.56;5038233;28;52068;-82
2023/12/24 04:12:40;;;;;;;;;0.00;0.00;;;;;15.20;100.00;101418.53;5069993;28;47104;-82
2023/12/24 04:15:06;;;;;;;;;0.00;0.00;;;;;15.26;100.00;101403.41;5042117;28;45374;-83
2023/12/24 04:17:34;;;;;;;;;0.00;0.00;;;;;15.25;100.00;101390.38;5056311;28;45487;-83
2023/12/24 04:19:59;;;;;;;;;0.00;0.00;;;;;15.00;100.00;101387.81;5066874;28;45562;-82
2023/12/24 04:22:24;;;;;;;;;0.00;0.00;;;;;15.13;100.00;101372.47;5038014;28;49575;-82
2023/12/24 04:24:50;;;;;;;;;0.00;0.00;;;;;15.03;100.00;101374.59;5055724;28;56295;-82
2023/12/24 04:27:15;;;;;;;;;0.00;0.00;;;;;15.06;100.00;101375.34;5038250;28;45333;-83
2023/12/24 04:29:40;;;;;;;;;0.00;0.00;;;;;15.05;100.00;101363.13;5037306;28;70232;-83
2023/12/24 04:32:05;;;;;;;;;0.00;0.00;;;;;15.07;100.00;101365.69;5055172;28;72788;-84
2023/12/24 04:34:31;;;;;;;;;0.00;0.00;;;;;15.09;100.00;101359.47;5036690;28;66217;-82
2023/12/24 04:36:57;;;;;;;;;0.00;0.00;;;;;15.13;100.00;101357.59;5038153;28;45310;-83
2023/12/24 04:39:24;;;;;;;;;0.00;0.00;;;;;15.02;100.00;101359.75;5055141;28;69110;-83
2023/12/24 04:41:49;;;;;;;;;0.00;0.00;;;;;15.05;100.00;101354.41;5037991;28;45514;-82
2023/12/24 04:44:15;;;;;;;;;0.00;0.00;;;;;14.97;100.00;101369.56;5054233;28;45431;-82
2023/12/24 04:46:45;;;;;;;;;0.00;0.00;;;;;14.85;100.00;101373.50;5037975;28;45341;-83
2023/12/24 04:49:10;;;;;;;;;0.00;0.00;;;;;14.84;100.00;101367.41;5055470;28;45399;-82
2023/12/24 04:51:36;;;;;;;;;0.00;0.00;;;;;14.75;100.00;101362.50;5037787;28;45993;-82
2023/12/24 04:54:02;;;;;;;;;0.00;0.00;;;;;14.78;100.00;101356.28;5024300;28;45473;-82
2023/12/24 04:56:27;;;;;;;;;0.00;0.00;;;;;14.62;100.00;101367.31;5038044;28;45403;-81
2023/12/24 04:58:53;;;;;;;;;0.00;0.00;;;;;14.67;100.00;101367.16;5055083;28;70521;-82
2023/12/24 05:01:19;;;;;;;;;0.00;0.00;;;;;14.59;100.00;101364.81;5056121;28;46683;-81
2023/12/24 05:03:44;;;;;;;;;0.00;0.00;;;;;14.69;100.00;101363.59;5045209;28;45421;-82
2023/12/24 05:06:10;;;;;;;;;0.00;0.00;;;;;14.61;100.00;101367.38;5056397;28;45462;-82
2023/12/24 05:08:35;;;;;;;;;0.00;0.00;;;;;14.71;100.00;101359.13;5041455;28;45476;-81
2023/12/24 05:11:07;;;;;;;;;0.00;0.00;;;;;14.76;100.00;101371.22;5040449;28;73463;-81
2023/12/24 05:13:33;;;;;;;;;0.00;0.00;;;;;14.71;100.00;101369.63;5059027;28;45390;-82
2023/12/24 05:15:58;;;;;;;;;0.00;0.00;;;;;14.71;100.00;101376.63;5059295;28;45434;-81
2023/12/24 05:18:24;;;;;;;;;0.00;0.00;;;;;14.68;100.00;101385.44;5058910;28;45498;-82
2023/12/24 05:20:49;;;;;;;;;0.00;0.00;;;;;14.70;100.00;101375.75;5058203;28;69293;-82
2023/12/24 05:23:16;;;;;;;;;0.00;0.00;;;;;14.82;100.00;101365.75;5059055;28;45431;-82
2023/12/24 05:25:41;;;;;;;;;0.00;0.00;;;;;14.66;100.00;101389.88;5062753;28;45551;-82
2023/12/24 05:28:08;;;;;;;;;1.00;0.00;;;;;14.79;100.00;101377.19;5058332;28;59244;-82
2023/12/24 05:30:34;;;;;;;;;0.00;0.00;;;;;14.88;100.00;101370.78;5058866;28;46388;-82
2023/12/24 05:32:59;;;;;;;;;0.00;0.00;;;;;14.90;100.00;101369.78;5058525;28;45495;-82
2023/12/24 05:35:24;;;;;;;;;0.00;0.00;;;;;14.89;100.00;101360.25;5023544;28;69098;-82
2023/12/24 05:37:50;;;;;;;;;0.00;0.00;;;;;14.83;100.00;101352.59;5062826;28;64067;-81
2023/12/24 05:40:15;;;;;;;;;0.00;0.00;;;;;14.93;100.00;101339.13;5023129;28;74873;-82
2023/12/24 05:42:42;;;;;;;;;0.00;0.00;;;;;14.98;100.00;101330.19;5040359;28;45848;-82
2023/12/24 05:45:10;;;;;;;;;0.00;0.00;;;;;14.93;100.00;101326.03;5058871;28;45472;-82
2023/12/24 05:47:35;;;;;;;;;0.00;0.00;;;;;14.98;100.00;101327.56;5058614;28;45578;-82
2023/12/24 05:50:01;;;;;;;;;0.00;0.00;;;;;14.99;100.00;101321.41;5022967;28;74031;-82
2023/12/24 05:52:26;;;;;;;;;0.00;0.00;;;;;15.06;100.00;101316.78;5040601;28;45383;-82
2023/12/24 05:54:54;;;;;;;;;0.00;0.00;;;;;15.06;100.00;101322.03;5057838;28;65667;-82
2023/12/24 05:57:20;;;;;;;;;0.00;0.00;;;;;15.15;100.00;101318.19;5040831;28;45501;-82
2023/12/24 05:59:45;;;;;;;;;0.00;0.00;;;;;15.11;100.00;101320.09;5023891;28;47120;-82
2023/12/24 06:02:10;;;;;;;;;0.00;0.00;;;;;15.07;100.00;101314.09;5058240;28;45353;-82
2023/12/24 06:04:35;;;;;;;;;0.00;0.00;;;;;15.13;100.00;101310.38;5057845;28;65372;-82
2023/12/24 06:07:01;;;;;;;;;0.00;0.00;;;;;15.15;100.00;101311.19;5057423;28;69609;-82
2023/12/24 06:09:26;;;;;;;;;0.00;0.00;;;;;15.17;100.00;101316.38;5041619;28;46778;-82
2023/12/24 06:11:52;;;;;;;;;0.00;0.00;;;;;15.12;100.00;101299.94;5058333;28;50972;-82
2023/12/24 06:14:17;;;;;;;;;0.00;0.00;;;;;15.14;100.00;101298.16;5057644;28;60780;-82
2023/12/24 06:16:42;;;;;;;;;0.00;0.00;;;;;15.17;100.00;101305.88;5041282;28;63915;-82
2023/12/24 06:19:08;;;;;;;;;0.00;0.00;;;;;15.21;100.00;101310.09;5039172;28;74145;-82
2023/12/24 06:21:33;;;;;;;;;0.00;0.00;;;;;14.94;100.00;101344.31;5057589;28;63027;-83
2023/12/24 06:23:58;;;;;;;;;0.00;0.00;;;;;15.14;100.00;101316.50;5022550;28;67717;-82
2023/12/24 06:26:23;;;;;;;;;0.00;0.00;;;;;15.13;100.00;101322.66;5057669;28;65375;-81
2023/12/24 06:28:49;;;;;;;;;0.00;0.00;;;;;15.20;100.00;101324.13;5039098;28;71830;-82
2023/12/24 06:31:22;;;;;;;;;0.00;0.00;;;;;15.25;100.00;101322.19;5038920;28;71786;-82
2023/12/24 06:33:47;;;;;;;;;0.00;0.00;;;;;15.14;100.00;101317.34;5058009;28;45357;-82
2023/12/24 06:36:13;;;;;;;;;0.00;0.00;;;;;15.17;100.00;101304.09;5040003;28;45579;-83
2023/12/24 06:38:38;;;;;;;;;0.00;0.00;;;;;15.25;100.00;101301.22;5023239;28;48028;-81
2023/12/24 06:41:04;;;;;;;;;0.00;0.00;;;;;15.27;100.00;101291.50;5038824;28;73224;-82
2023/12/24 06:43:29;;;;;;;;;0.00;0.00;;;;;15.22;100.00;101296.91;5034162;28;45407;-81
2023/12/24 06:45:54;;;;;;;;;0.00;0.00;;;;;15.28;100.00;101307.19;5057718;28;65064;-82
2023/12/24 06:48:20;;;;;;;;;0.00;0.00;;;;;15.27;100.00;101317.72;5042056;28;46240;-82
2023/12/24 06:50:45;;;;;;;;;0.00;0.00;;;;;15.34;100.00;101313.09;5038553;28;72792;-82
2023/12/24 06:53:10;;;;;;;;;0.00;0.00;;;;;15.33;100.00;101316.63;5022257;28;65588;-81
2023/12/24 06:55:36;;;;;;;;;3.00;3.00;;;;;15.21;100.00;101324.06;5038757;28;69175;-80
2023/12/24 06:58:03;;;;;;;;;0.00;0.00;;;;;15.32;100.00;101328.88;5057226;28;46978;-82
2023/12/24 07:00:29;;;;;;;;;0.00;0.00;;;;;15.36;100.00;101322.63;5040104;28;45349;-82
2023/12/24 07:02:54;;;;;;;;;0.00;0.00;;;;;15.43;100.00;101308.34;5057778;28;45439;-81
2023/12/24 07:05:19;;;;;;;;;0.00;0.00;;;;;15.36;100.00;101313.88;5022924;28;45501;-82
2023/12/24 07:07:45;;;;;;;;;0.00;0.00;;;;;15.37;100.00;101315.59;5038544;28;75440;-82
2023/12/24 07:10:10;;;;;;;;;0.00;0.00;;;;;15.36;100.00;101301.63;5038918;28;61839;-82
2023/12/24 07:12:35;;;;;;;;;0.00;0.00;;;;;15.34;100.00;101315.69;5020902;28;70157;-82
2023/12/24 07:15:03;;;;;;;;;0.00;0.00;;;;;15.32;100.00;101315.75;5040970;28;45278;-84
2023/12/24 07:17:28;;;;;;;;;0.00;0.00;;;;;15.37;100.00;101321.69;5055384;28;46981;-82
2023/12/24 07:19:53;;;;;;;;;0.00;0.00;;;;;15.31;100.00;101313.22;5057091;28;45193;-82
2023/12/24 07:22:19;;;;;;;;;0.00;0.00;;;;;15.34;100.00;101320.94;5056575;28;66800;-82
2023/12/24 07:24:45;;;;;;;;;0.00;0.00;;;;;15.36;100.00;101311.25;5057238;28;45234;-82
2023/12/24 07:27:10;;;;;;;;;0.00;0.00;;;;;15.38;100.00;101319.91;5021883;28;48656;-81
2023/12/24 07:29:35;;;;;;;;;0.00;0.00;;;;;15.38;100.00;101319.91;5038455;28;45383;-82
2023/12/24 07:32:01;;;;;;;;;0.00;0.00;;;;;15.41;100.00;101314.56;5056405;28;67973;-82
2023/12/24 07:34:27;;;;;;;;;0.00;0.00;;;;;15.41;100.00;101318.00;5056951;28;45500;-82
2023/12/24 07:36:52;;;;;;;;;0.00;0.00;;;;;15.44;100.00;101324.94;5056752;28;45547;-82
2023/12/24 07:39:17;;;;;;;;;0.67;0.67;;;;;15.43;100.00;101316.22;5037961;28;73675;-82
2023/12/24 07:41:43;;;;;;;;;0.00;0.00;;;;;15.39;100.00;101317.22;5037410;28;55784;-82
2023/12/24 07:44:09;;;;;;;;;0.00;0.00;;;;;15.40;100.00;101316.31;5036807;28;69280;-81
2023/12/24 07:46:35;;;;;;;;;0.00;0.00;;;;;15.40;100.00;101311.09;5062850;28;45349;-82
2023/12/24 07:49:00;;;;;;;;;0.00;0.00;;;;;15.46;100.00;101313.44;5056899;28;45346;-82
2023/12/24 07:51:25;;;;;;;;;0.00;0.00;;;;;15.47;100.00;101309.03;5038931;28;45337;-82
2023/12/24 07:53:51;;;;;;;;;0.00;0.00;;;;;15.41;100.00;101301.44;5038337;28;45506;-81
2023/12/24 07:56:16;;;;;;;;;0.00;0.00;;;;;15.44;100.00;101311.81;5036872;28;73852;-82
2023/12/24 07:58:41;;;;;;;;;0.00;0.00;;;;;15.39;100.00;101296.25;5037509;28;45375;-85
2023/12/24 08:01:07;;;;;;;;;0.00;0.00;;;;;15.39;100.00;101298.03;5021399;28;69455;-84
2023/12/24 08:03:32;;;;;;;;;0.00;0.00;;;;;15.40;100.00;101307.63;5020729;28;69245;-83
2023/12/24 08:05:57;;;;;;;;;0.00;0.00;;;;;15.44;100.00;101311.81;5036935;28;76602;-84
2023/12/24 08:08:23;;;;;;;;;0.00;0.00;;;;;15.45;100.00;101324.88;5055644;28;63682;-83
2023/12/24 08:10:48;;;;;;;;;0.00;0.00;;;;;15.39;100.00;101319.84;5055413;28;66423;-84
2023/12/24 08:13:14;;;;;;;;;0.00;0.00;;;;;15.41;100.00;101320.63;5018917;28;45537;-84
2023/12/24 08:15:39;;;;;;;;;5.25;5.25;;;;;15.47;100.00;101323.03;5038473;28;47138;-85
2023/12/24 08:18:05;;;;;;;;;0.00;0.00;;;;;15.53;100.00;101326.34;5038187;28;45491;-84
2023/12/24 08:20:30;;;;;;;;;0.00;0.00;;;;;15.51;100.00;101336.88;5021681;28;52683;-84
2023/12/24 08:22:55;;;;;;;;;0.00;0.00;;;;;15.52;100.00;101333.34;5037285;28;68632;-84
2023/12/24 08:25:21;;;;;;;;;0.00;0.00;;;;;15.48;100.00;101329.13;5037451;28;46006;-84
2023/12/24 08:27:46;;;;;;;;;0.00;0.00;;;;;15.46;100.00;101344.09;5038150;28;45303;-84
2023/12/24 08:30:12;;;;;;;;;0.00;0.00;;;;;15.55;100.00;101330.59;5055069;28;69627;-82
2023/12/24 08:32:37;;;;;;;;;0.00;0.00;;;;;15.53;100.00;101337.69;5056239;28;45409;-82
2023/12/24 08:35:03;;;;;;;;;0.00;0.00;;;;;15.54;100.00;101338.53;5055626;28;46394;-82
2023/12/24 08:37:29;;;;;;;;;0.00;0.00;;;;;15.49;100.00;101338.72;5038132;28;45850;-85
2023/12/24 08:39:54;;;;;;;;;0.00;0.00;;;;;15.57;100.00;101334.00;5037870;28;45465;-86
2023/12/24 08:42:19;;;;;;;;;0.00;0.00;;;;;15.47;100.00;101337.91;5021143;28;66464;-83
2023/12/24 08:44:45;;;;;;;;;0.00;0.00;;;;;15.57;100.00;101341.03;5038630;28;74752;-81
2023/12/24 08:47:10;;;;;;;;;0.00;0.00;;;;;15.57;100.00;101330.53;5066836;28;45474;-83
2023/12/24 08:49:36;;;;;;;;;0.00;0.00;;;;;15.57;100.00;101339.25;5020154;28;71541;-82
2023/12/24 08:52:01;;;;;;;;;0.00;0.00;;;;;15.57;100.00;101339.25;5055118;28;45534;-82
2023/12/24 08:54:27;;;;;;;;;0.00;0.00;;;;;15.57;100.00;101344.50;5037164;28;46395;-82
2023/12/24 08:56:53;;;;;;;;;0.00;0.00;;;;;15.54;100.00;101343.78;5036859;28;63043;-82
2023/12/24 08:59:20;;;;;;;;;0.00;0.00;;;;;15.62;100.00;101344.31;5055648;28;45272;-83
2023/12/24 09:01:45;;;;;;;;;0.00;0.00;;;;;15.68;100.00;101341.47;5056242;28;45392;-83
2023/12/24 09:04:11;;;;;;;;;0.00;0.00;;;;;15.63;100.00;101348.66;5037365;28;45559;-83
2023/12/24 09:06:37;;;;;;;;;0.00;0.00;;;;;15.71;100.00;101351.81;5037489;28;52012;-82
2023/12/24 09:09:03;;;;;;;;;0.00;0.00;;;;;15.80;100.00;101342.75;5037183;28;45398;-82
2023/12/24 09:11:29;;;;;;;;;0.00;0.00;;;;;15.82;100.00;101347.03;5037218;28;45499;-82
2023/12/24 09:13:54;;;;;;;;;0.00;0.00;;;;;15.84;100.00;101331.19;5053364;28;73341;-85
2023/12/24 09:16:19;;;;;;;;;0.00;0.00;;;;;15.94;100.00;101342.19;5020142;28;49808;-83
2023/12/24 09:18:45;;;;;;;;;0.00;0.00;;;;;16.01;100.00;101346.25;5037668;28;45708;-84
2023/12/24 09:21:10;;;;;;;;;3.00;3.00;;;;;16.06;100.00;101341.66;5036367;28;67089;-83
2023/12/24 09:23:36;;;;;;;;;0.00;0.00;;;;;16.03;100.00;101349.69;5054050;28;73243;-84
2023/12/24 09:26:01;;;;;;;;;0.00;0.00;;;;;16.11;100.00;101349.34;5037125;28;45554;-84
2023/12/24 09:28:26;;;;;;;;;0.00;0.00;;;;;16.14;100.00;101349.22;5036168;28;69235;-84
2023/12/24 09:30:52;;;;;;;;;0.00;0.00;;;;;16.10;100.00;101343.22;5031717;28;45531;-84
2023/12/24 09:33:17;;;;;;;;;0.00;0.00;;;;;16.11;100.00;101350.19;5054477;28;70502;-84
2023/12/24 09:35:43;;;;;;;;;0.00;0.00;;;;;16.20;100.00;101341.09;5037062;28;45283;-85
2023/12/24 09:38:10;;;;;;;;;0.00;0.00;;;;;16.16;100.00;101344.78;5050896;28;45371;-85
2023/12/24 09:40:35;;;;;;;;;0.00;0.00;;;;;16.10;100.00;101340.59;5055302;28;45505;-86
2023/12/24 09:43:00;;;;;;;;;0.00;0.00;;;;;16.22;100.00;101339.25;5022632;28;66965;-82
2023/12/24 09:45:26;;;;;;;;;0.00;0.00;;;;;16.19;100.00;101340.22;5055618;28;47594;-86
2023/12/24 09:47:51;;;;;;;;;0.00;0.00;;;;;16.31;100.00;101328.34;5036129;28;58705;-84
2023/12/24 09:50:17;;;;;;;;;0.00;0.00;;;;;16.18;100.00;101337.69;5047984;28;45458;-83
2023/12/24 09:52:45;;;;;;;;;0.00;0.00;;;;;16.35;100.00;101327.28;5052482;28;46464;-83
2023/12/24 09:55:10;;;;;;;;;0.00;0.00;;;;;16.35;100.00;101342.19;5036539;28;45315;-83
2023/12/24 09:57:35;;;;;;;;;0.00;0.00;;;;;16.38;100.00;101337.66;5038743;28;57230;-82
2023/12/24 10:00:01;;;;;;;;;0.00;0.00;;;;;16.38;100.00;101337.66;5056194;28;57765;-84
2023/12/24 10:02:27;;;;;;;;;0.00;0.00;;;;;16.43;100.00;101343.53;5053886;28;45543;-85
2023/12/24 10:04:52;;;;;;;;;0.00;0.00;;;;;16.48;100.00;101347.78;5034794;28;45400;-84
2023/12/24 10:07:17;;;;;;;;;0.00;0.00;;;;;16.51;100.00;101347.63;5048645;28;45453;-84
2023/12/24 10:09:44;;;;;;;;;0.00;0.00;;;;;16.52;100.00;101339.66;5058031;28;50084;-85
2023/12/24 10:12:09;;;;;;;;;0.00;0.00;;;;;16.48;100.00;101359.13;5040004;28;46227;-85
2023/12/24 10:14:35;;;;;;;;;1.00;1.00;;;;;16.50;100.00;101338.88;5055152;28;45533;-84
2023/12/24 10:17:01;;;;;;;;;0.00;0.00;;;;;16.57;100.00;101335.06;5056617;28;45502;-83
2023/12/24 10:19:28;;;;;;;;;0.00;0.00;;;;;16.57;100.00;101342.97;5040120;28;45473;-88
2023/12/24 10:22:04;;;;;;;;;0.00;0.00;;;;;16.67;100.00;101343.41;5057363;28;45933;-83
2023/12/24 10:24:29;;;;;;;;;0.00;0.00;;;;;16.68;100.00;101337.22;5057756;28;45380;-83
2023/12/24 10:27:10;;;;;;;;;0.00;0.00;;;;;16.64;100.00;101343.53;5054989;28;45382;-81
2023/12/24 10:29:38;;;;;;;;;0.00;0.00;;;;;16.82;100.00;101324.31;5040314;28;45443;-89
2023/12/24 10:32:04;;;;;;;;;0.00;0.00;;;;;16.82;100.00;101337.47;5058391;28;46005;-80
2023/12/24 10:34:30;;;;;;;;;0.00;0.00;;;;;17.07;100.00;101335.47;5051192;28;45686;-83
2023/12/24 10:36:58;;;;;;;;;0.00;0.00;;;;;17.16;100.00;101328.03;5054627;28;45520;-80
2023/12/24 10:39:24;;;;;;;;;0.00;0.00;;;;;17.22;100.00;101333.00;5039859;28;45393;-83
2023/12/24 10:41:56;;;;;;;;;0.00;0.00;;;;;17.31;100.00;101322.94;5034876;28;45496;-82
2023/12/24 10:44:22;;;;;;;;;0.00;0.00;;;;;17.26;100.00;101319.72;5056429;28;45522;-82
2023/12/24 10:46:47;;;;;;;;;0.00;0.00;;;;;17.24;100.00;101322.41;5037773;28;48300;-82
2023/12/24 10:49:13;;;;;;;;;0.00;0.00;;;;;17.29;100.00;101324.81;5057706;28;45424;-81
2023/12/24 10:51:39;;;;;;;;;0.00;0.00;;;;;17.05;100.00;101340.84;5055797;28;45762;-81
2023/12/24 10:54:08;;;;;;;;;0.00;0.00;;;;;17.05;100.00;101322.44;5055071;28;45462;-84
2023/12/24 10:56:50;;;;;;;;;0.00;0.00;;;;;17.01;100.00;101328.72;5029144;28;45424;-84
2023/12/24 10:59:31;;;;;;;;;0.00;0.00;;;;;16.94;100.00;101322.06;5039287;28;45223;-84
2023/12/24 11:01:56;;;;;;;;;0.00;0.00;;;;;16.86;100.00;101324.19;5040198;28;46689;-84
2023/12/24 11:04:42;;;;;;;;;0.00;0.00;;;;;16.99;100.00;101317.44;5038499;28;45321;-84
2023/12/24 11:07:08;;;;;;;;;0.00;0.00;;;;;16.98;100.00;101311.34;5040231;28;45302;-84
2023/12/24 11:09:33;;;;;;;;;0.00;0.00;;;;;17.02;100.00;101312.03;5056437;28;62270;-86
2023/12/24 11:11:58;;;;;;;;;0.00;0.00;;;;;17.03;100.00;101304.09;5038519;28;48329;-84